createdAt,value
2022-07-25T00:02:11.727Z,98.00
2022-07-25T00:04:41.908Z,98.00
2022-07-25T00:07:10.083Z,98.20
2022-07-25T00:09:38.011Z,98.20
2022-07-25T00:12:05.941Z,98.40
2022-07-25T00:14:33.441Z,98.60
2022-07-25T00:24:49.189Z,98.60
2022-07-25T00:27:16.581Z,98.90
2022-07-25T00:29:43.522Z,99.00
2022-07-25T00:32:10.944Z,99.10
2022-07-25T00:34:38.319Z,99.10
2022-07-25T00:37:06.399Z,99.10
2022-07-25T00:39:35.679Z,99.10
2022-07-25T00:45:21.913Z,99.20
2022-07-25T00:47:49.332Z,99.20
2022-07-25T00:50:16.564Z,99.30
2022-07-25T00:52:44.571Z,99.50
2022-07-25T00:55:12.529Z,99.50
2022-07-25T00:57:40.413Z,99.60
2022-07-25T01:00:12.097Z,99.60
2022-07-25T01:05:53.514Z,99.90
2022-07-25T01:08:23.192Z,99.70
2022-07-25T01:10:51.571Z,99.70
2022-07-25T01:13:18.901Z,99.60
2022-07-25T01:15:48.379Z,99.60
2022-07-25T01:18:15.790Z,99.60
2022-07-25T01:20:44.810Z,99.80
2022-07-25T01:30:59.624Z,99.90
2022-07-25T01:33:27.041Z,99.90
2022-07-25T01:35:54.469Z,99.90
2022-07-25T01:38:21.822Z,99.90
2022-07-25T01:40:49.181Z,99.90
2022-07-25T01:43:17.269Z,99.90
2022-07-25T01:45:44.811Z,99.90
2022-07-25T01:48:13.831Z,99.90
2022-07-25T01:55:46.521Z,99.90
2022-07-25T01:58:14.944Z,99.90
2022-07-25T02:00:43.441Z,99.90
2022-07-25T02:03:28.610Z,99.90
2022-07-25T02:05:56.149Z,99.90
2022-07-25T02:08:24.106Z,99.90
2022-07-25T02:10:52.560Z,99.90
2022-07-25T02:21:14.110Z,99.90
2022-07-25T02:23:43.692Z,99.90
2022-07-25T02:26:11.479Z,99.90
2022-07-25T02:28:39.688Z,99.90
2022-07-25T02:31:07.322Z,99.90
2022-07-25T02:33:34.611Z,99.90
2022-07-25T02:36:02.231Z,99.90
2022-07-25T02:46:20.381Z,99.90
2022-07-25T02:48:47.722Z,99.90
2022-07-25T02:51:15.519Z,99.90
2022-07-25T02:53:59.017Z,99.90
2022-07-25T02:56:30.204Z,99.90
2022-07-25T02:58:57.926Z,99.90
2022-07-25T03:01:26.554Z,99.90
2022-07-25T03:06:36.502Z,99.90
2022-07-25T03:09:04.762Z,99.90
2022-07-25T03:11:34.192Z,99.90
2022-07-25T03:14:01.475Z,99.90
2022-07-25T03:16:28.947Z,99.90
2022-07-25T03:18:56.414Z,99.90
2022-07-25T03:21:23.701Z,99.90
2022-07-25T03:26:36.181Z,99.90
2022-07-25T03:29:04.218Z,99.90
2022-07-25T03:31:31.491Z,99.90
2022-07-25T03:33:58.970Z,99.90
2022-07-25T03:36:26.300Z,99.90
2022-07-25T03:38:55.332Z,99.90
2022-07-25T03:41:23.320Z,99.90
2022-07-25T03:51:41.090Z,99.90
2022-07-25T03:54:13.078Z,99.90
2022-07-25T03:56:43.993Z,99.90
2022-07-25T03:59:12.835Z,99.90
2022-07-25T04:01:41.918Z,99.90
2022-07-25T04:04:09.743Z,99.90
2022-07-25T04:06:37.901Z,99.90
2022-07-25T04:12:28.596Z,99.90
2022-07-25T04:14:55.870Z,99.90
2022-07-25T04:17:23.779Z,99.90
2022-07-25T04:19:53.829Z,99.90
2022-07-25T04:22:22.285Z,99.90
2022-07-25T04:24:50.175Z,99.90
2022-07-25T04:27:18.215Z,99.90
2022-07-25T04:33:11.799Z,99.90
2022-07-25T04:35:42.429Z,99.90
2022-07-25T04:38:12.333Z,99.90
2022-07-25T04:40:40.070Z,99.90
2022-07-25T04:43:09.321Z,99.90
2022-07-25T04:45:37.001Z,99.90
2022-07-25T04:48:05.141Z,99.90
2022-07-25T04:50:33.356Z,99.90
2022-07-25T04:55:41.666Z,99.90
2022-07-25T04:58:09.541Z,99.90
2022-07-25T05:00:37.566Z,99.90
2022-07-25T05:03:05.228Z,99.90
2022-07-25T05:05:33.288Z,99.90
2022-07-25T05:08:01.013Z,99.90
2022-07-25T05:10:30.471Z,99.90
2022-07-25T05:13:00.120Z,99.90
2022-07-25T05:18:08.891Z,99.90
2022-07-25T05:20:36.540Z,99.90
2022-07-25T05:23:04.355Z,99.90
2022-07-25T05:25:31.769Z,99.90
2022-07-25T05:28:00.654Z,99.90
2022-07-25T05:30:28.260Z,99.90
2022-07-25T05:33:00.839Z,99.90
2022-07-25T05:35:29.968Z,99.90
2022-07-25T05:42:47.746Z,99.90
2022-07-25T05:45:22.217Z,99.90
2022-07-25T05:47:53.378Z,99.90
2022-07-25T05:54:11.622Z,99.90
2022-07-25T05:59:33.573Z,99.90
2022-07-25T06:01:19.818Z,99.90
2022-07-25T06:03:49.910Z,99.90
2022-07-25T06:12:46.593Z,99.90
2022-07-25T06:15:22.635Z,99.90
2022-07-25T06:17:54.337Z,99.90
2022-07-25T06:20:22.040Z,99.90
2022-07-25T06:22:51.882Z,99.90
2022-07-25T06:25:20.351Z,99.90
2022-07-25T06:27:49.056Z,99.90
2022-07-25T06:35:06.048Z,99.90
2022-07-25T06:37:39.090Z,99.90
2022-07-25T06:40:10.064Z,99.90
2022-07-25T06:42:39.108Z,99.90
2022-07-25T06:45:10.591Z,99.90
2022-07-25T06:47:51.278Z,99.90
2022-07-25T06:50:22.619Z,99.90
2022-07-25T06:53:01.780Z,99.90
2022-07-25T06:55:29.198Z,99.90
2022-07-25T07:03:13.677Z,99.90
2022-07-25T07:06:07.188Z,99.90
2022-07-25T07:08:58.110Z,99.90
2022-07-25T07:11:43.640Z,99.90
2022-07-25T07:14:25.132Z,99.90
2022-07-25T07:17:34.119Z,99.90
2022-07-25T07:21:05.579Z,99.90
2022-07-25T07:27:05.261Z,99.90
2022-07-25T07:37:14.738Z,99.90
2022-07-25T07:39:42.219Z,99.90
2022-07-25T07:42:09.291Z,99.90
2022-07-25T07:45:04.090Z,99.90
2022-07-25T07:47:31.535Z,99.90
2022-07-25T07:49:58.949Z,99.90
2022-07-25T07:52:55.210Z,99.90
2022-07-25T07:55:44.102Z,99.90
2022-07-25T08:09:01.680Z,99.90
2022-07-25T08:11:30.296Z,99.90
2022-07-25T08:14:27.918Z,99.90
2022-07-25T08:17:28.759Z,99.90
2022-07-25T08:20:05.493Z,99.90
2022-07-25T08:23:45.390Z,99.90
2022-07-25T08:26:54.173Z,99.90
2022-07-25T08:29:26.330Z,99.90
2022-07-25T08:31:55.530Z,99.90
2022-07-25T08:34:33.230Z,99.90
2022-07-25T08:42:10.805Z,99.90
2022-07-25T08:44:45.938Z,99.90
2022-07-25T08:47:22.015Z,99.90
2022-07-25T08:49:49.680Z,99.90
2022-07-25T08:52:25.542Z,99.90
2022-07-25T08:54:53.133Z,99.90
2022-07-25T08:57:24.941Z,99.40
2022-07-25T08:59:52.809Z,99.20
2022-07-25T09:07:08.027Z,96.60
2022-07-25T09:09:39.768Z,97.90
2022-07-25T09:12:09.429Z,96.90
2022-07-25T09:14:45.269Z,95.90
2022-07-25T09:17:22.539Z,95.50
2022-07-25T09:19:56.005Z,94.30
2022-07-25T09:22:24.871Z,94.00
2022-07-25T09:30:11.858Z,94.20
2022-07-25T09:32:39.109Z,92.80
2022-07-25T09:35:07.459Z,92.80
2022-07-25T09:37:35.081Z,92.40
2022-07-25T09:40:11.711Z,92.10
2022-07-25T09:42:45.643Z,92.10
2022-07-25T09:45:21.148Z,93.00
2022-07-25T09:47:54.475Z,92.40
2022-07-25T09:54:28.085Z,91.60
2022-07-25T09:56:55.619Z,91.50
2022-07-25T09:59:22.856Z,92.00
2022-07-25T10:02:00.665Z,91.80
2022-07-25T10:04:43.489Z,92.10
2022-07-25T10:07:14.264Z,91.30
2022-07-25T10:10:01.165Z,90.80
2022-07-25T10:17:33.151Z,91.30
2022-07-25T10:20:01.192Z,91.20
2022-07-25T10:22:55.869Z,91.60
2022-07-25T10:25:24.447Z,91.30
2022-07-25T10:27:59.407Z,91.00
2022-07-25T10:30:29.420Z,90.70
2022-07-25T10:32:59.971Z,90.70
2022-07-25T10:40:37.880Z,90.60
2022-07-25T10:43:11.989Z,90.50
2022-07-25T10:45:48.111Z,90.40
2022-07-25T10:48:22.008Z,90.40
2022-07-25T10:51:02.411Z,89.80
2022-07-25T10:53:35.770Z,90.00
2022-07-25T11:02:58.806Z,88.80
2022-07-25T11:05:26.532Z,87.80
2022-07-25T11:08:21.182Z,88.10
2022-07-25T11:10:55.369Z,88.20
2022-07-25T11:13:31.141Z,87.20
2022-07-25T11:15:58.950Z,88.10
2022-07-25T11:18:35.790Z,88.20
2022-07-25T11:25:46.958Z,88.30
2022-07-25T11:28:17.110Z,88.80
2022-07-25T11:30:44.363Z,87.80
2022-07-25T11:33:19.690Z,89.20
2022-07-25T11:35:47.421Z,90.40
2022-07-25T11:38:36.693Z,89.90
2022-07-25T11:41:04.829Z,89.30
2022-07-25T11:46:12.104Z,90.40
2022-07-25T11:48:42.533Z,90.20
2022-07-25T11:55:24.278Z,90.00
2022-07-25T11:57:58.892Z,90.10
2022-07-25T12:00:26.658Z,90.10
2022-07-25T12:02:54.569Z,91.30
2022-07-25T12:05:32.401Z,91.90
2022-07-25T12:16:06.162Z,95.00
2022-07-25T12:18:37.503Z,95.80
2022-07-25T12:21:14.007Z,95.30
2022-07-25T12:24:01.753Z,95.20
2022-07-25T12:26:51.312Z,94.60
2022-07-25T12:29:59.701Z,94.90
2022-07-25T12:32:38.568Z,94.20
2022-07-25T12:35:15.270Z,93.80
2022-07-25T12:53:45.382Z,94.00
2022-07-25T12:56:52.289Z,95.90
2022-07-25T12:59:25.699Z,97.50
2022-07-25T13:02:01.374Z,98.60
2022-07-25T13:04:29.138Z,99.90
2022-07-25T13:06:57.270Z,99.90
2022-07-25T13:09:26.688Z,99.90
2022-07-25T13:12:10.372Z,99.90
2022-07-25T13:19:45.264Z,99.90
2022-07-25T13:22:12.931Z,99.90
2022-07-25T13:24:40.662Z,99.90
2022-07-25T13:27:34.576Z,99.90
2022-07-25T13:30:01.609Z,99.90
2022-07-25T13:32:31.224Z,99.90
2022-07-25T13:34:59.554Z,99.90
2022-07-25T13:37:34.598Z,99.90
2022-07-25T13:45:47.735Z,99.90
2022-07-25T13:48:31.603Z,99.90
2022-07-25T13:51:26.066Z,99.90
2022-07-25T13:54:24.390Z,99.90
2022-07-25T13:56:57.610Z,99.90
2022-07-25T14:00:11.864Z,99.90
2022-07-25T14:02:48.576Z,99.90
2022-07-25T14:05:59.862Z,99.90
2022-07-25T14:08:54.664Z,99.90
2022-07-25T14:25:07.037Z,99.90
2022-07-25T14:27:35.111Z,99.80
2022-07-25T14:30:49.825Z,99.50
2022-07-25T14:33:29.860Z,99.90
2022-07-25T14:36:19.218Z,99.00
2022-07-25T14:42:52.182Z,99.60
2022-07-25T14:46:30.368Z,99.10
2022-07-25T15:09:48.309Z,98.40
2022-07-25T15:12:17.242Z,97.30
2022-07-25T15:14:45.472Z,97.10
2022-07-25T15:17:22.850Z,96.70
2022-07-25T15:19:58.488Z,96.90
2022-07-25T15:22:28.841Z,96.50
2022-07-25T15:25:29.798Z,95.80
2022-07-25T15:32:53.352Z,96.80
2022-07-25T15:35:28.725Z,96.10
2022-07-25T15:38:07.932Z,96.70
2022-07-25T15:40:35.514Z,96.70
2022-07-25T15:43:07.346Z,97.30
2022-07-25T15:45:49.591Z,97.70
2022-07-25T15:48:25.711Z,98.50
2022-07-25T15:50:53.845Z,99.60
2022-07-25T15:53:37.344Z,99.90
2022-07-25T15:56:10.004Z,99.90
2022-07-25T16:04:15.738Z,99.90
2022-07-25T16:06:44.003Z,99.90
2022-07-25T16:09:15.652Z,99.90
2022-07-25T16:11:46.664Z,99.90
2022-07-25T16:14:14.772Z,99.90
2022-07-25T16:16:43.946Z,99.90
2022-07-25T16:22:10.401Z,99.90
2022-07-25T16:27:40.993Z,99.90
2022-07-25T16:30:29.025Z,99.90
2022-07-25T16:33:15.834Z,99.90
2022-07-25T16:35:58.742Z,99.90
2022-07-25T16:38:39.504Z,99.90
2022-07-25T16:41:15.562Z,99.90
2022-07-25T16:47:04.451Z,99.90
2022-07-25T16:49:34.974Z,99.90
2022-07-25T16:52:05.355Z,99.90
2022-07-25T16:54:33.964Z,99.90
2022-07-25T16:57:03.791Z,99.90
2022-07-25T16:59:33.674Z,99.90
2022-07-25T17:02:05.910Z,99.90
2022-07-25T17:07:16.918Z,99.90
2022-07-25T17:09:45.106Z,99.90
2022-07-25T17:12:19.264Z,99.90
2022-07-25T17:14:50.773Z,99.90
2022-07-25T17:17:20.995Z,99.90
2022-07-25T17:19:49.274Z,99.90
2022-07-25T17:22:18.039Z,99.90
2022-07-25T17:24:46.254Z,99.90
2022-07-25T17:32:24.939Z,99.90
2022-07-25T17:34:58.872Z,99.90
2022-07-25T17:37:28.465Z,99.90
2022-07-25T17:39:57.143Z,99.90
2022-07-25T17:42:27.802Z,99.90
2022-07-25T17:44:57.425Z,99.90
2022-07-25T17:47:25.225Z,99.90
2022-07-25T17:52:42.514Z,99.90
2022-07-25T17:55:14.722Z,99.90
2022-07-25T17:57:44.413Z,99.90
2022-07-25T18:00:34.245Z,99.90
2022-07-25T18:03:02.285Z,99.90
2022-07-25T18:05:31.483Z,99.90
2022-07-25T18:08:03.373Z,99.90
2022-07-25T18:16:07.679Z,99.90
2022-07-25T18:18:35.964Z,99.90
2022-07-25T18:21:09.168Z,99.90
2022-07-25T18:23:39.353Z,99.90
2022-07-25T18:26:10.182Z,99.90
2022-07-25T18:28:38.202Z,99.90
2022-07-25T18:31:26.492Z,99.90
2022-07-25T18:36:51.192Z,99.90
2022-07-25T18:39:24.766Z,99.90
2022-07-25T18:42:19.211Z,99.90
2022-07-25T18:44:51.090Z,99.90
2022-07-25T18:47:24.653Z,99.90
2022-07-25T18:49:55.645Z,99.90
2022-07-25T18:52:51.492Z,99.90
2022-07-25T18:55:29.108Z,99.90
2022-07-25T19:03:27.602Z,99.90
2022-07-25T19:06:01.223Z,99.90
2022-07-25T19:08:32.769Z,99.90
2022-07-25T19:11:00.605Z,99.90
2022-07-25T19:13:48.394Z,99.90
2022-07-25T19:16:17.316Z,99.90
2022-07-25T19:18:46.751Z,99.90
2022-07-25T19:24:03.205Z,99.90
2022-07-25T19:26:32.388Z,99.90
2022-07-25T19:29:01.758Z,99.90
2022-07-25T19:31:29.533Z,99.90
2022-07-25T19:33:57.395Z,99.90
2022-07-25T19:36:26.451Z,99.90
2022-07-25T19:38:54.423Z,99.90
2022-07-25T19:44:05.275Z,99.90
2022-07-25T19:46:33.729Z,99.90
2022-07-25T19:49:03.621Z,99.90
2022-07-25T19:51:33.754Z,99.90
2022-07-25T19:54:04.226Z,99.90
2022-07-25T19:56:33.682Z,99.90
2022-07-25T19:59:05.022Z,99.90
2022-07-25T20:01:35.597Z,99.90
2022-07-25T20:09:11.739Z,99.90
2022-07-25T20:11:40.530Z,99.90
2022-07-25T20:14:11.196Z,99.90
2022-07-25T20:16:40.324Z,99.90
2022-07-25T20:19:14.184Z,99.90
2022-07-25T20:21:41.693Z,99.90
2022-07-25T20:24:12.162Z,99.90
2022-07-25T20:26:39.292Z,99.90
2022-07-25T20:34:12.864Z,99.90
2022-07-25T20:36:42.240Z,99.90
2022-07-25T20:39:10.794Z,99.90
2022-07-25T20:41:39.702Z,99.90
2022-07-25T20:44:07.565Z,99.90
2022-07-25T20:46:36.234Z,99.90
2022-07-25T20:49:04.551Z,99.90
2022-07-25T20:51:33.526Z,99.90
2022-07-25T20:59:11.485Z,99.90
2022-07-25T21:01:39.380Z,99.90
2022-07-25T21:04:07.887Z,99.90
2022-07-25T21:06:35.564Z,99.90
2022-07-25T21:09:04.866Z,99.90
2022-07-25T21:11:34.293Z,99.90
2022-07-25T21:14:05.438Z,99.90
2022-07-25T21:21:33.889Z,99.90
2022-07-25T21:24:02.545Z,99.90
2022-07-25T21:26:30.067Z,99.90
2022-07-25T21:28:57.932Z,99.90
2022-07-25T21:31:25.338Z,99.90
2022-07-25T21:33:53.115Z,99.90
2022-07-25T21:36:23.388Z,99.90
2022-07-25T21:46:42.752Z,99.90
2022-07-25T21:49:41.592Z,99.90
2022-07-25T21:52:18.118Z,99.90
2022-07-25T21:54:45.929Z,99.90
2022-07-25T21:57:14.608Z,99.90
2022-07-25T21:59:42.480Z,99.90
2022-07-25T22:02:11.092Z,99.90
2022-07-25T22:04:39.042Z,99.90
2022-07-25T22:12:11.459Z,99.90
2022-07-25T22:14:38.914Z,99.90
2022-07-25T22:17:06.305Z,99.90
2022-07-25T22:19:33.902Z,99.90
2022-07-25T22:22:01.214Z,99.90
2022-07-25T22:24:28.678Z,99.90
2022-07-25T22:26:56.572Z,99.90
2022-07-25T22:29:24.988Z,99.90
2022-07-25T22:34:56.392Z,99.90
2022-07-25T22:37:23.854Z,99.90
2022-07-25T22:39:53.955Z,99.90
2022-07-25T22:42:25.685Z,99.90
2022-07-25T22:44:53.584Z,99.90
2022-07-25T22:47:20.862Z,99.90
2022-07-25T22:49:48.852Z,99.90
2022-07-25T22:54:56.772Z,99.90
2022-07-25T22:57:23.962Z,99.90
2022-07-25T22:59:51.935Z,99.90
2022-07-25T23:02:20.490Z,99.90
2022-07-25T23:04:47.717Z,99.90
2022-07-25T23:07:15.532Z,99.90
2022-07-25T23:09:43.574Z,99.90
2022-07-25T23:12:12.091Z,99.90
2022-07-25T23:19:47.006Z,99.90
2022-07-25T23:22:16.104Z,99.90
2022-07-25T23:24:44.685Z,99.90
2022-07-25T23:27:12.204Z,99.90
2022-07-25T23:29:41.619Z,99.90
2022-07-25T23:32:11.624Z,99.90
2022-07-25T23:34:39.553Z,99.90
2022-07-25T23:44:18.732Z,99.90
2022-07-25T23:46:47.742Z,99.90
2022-07-25T23:49:15.340Z,99.90
2022-07-25T23:51:43.382Z,99.90
2022-07-25T23:54:10.941Z,99.90
2022-07-25T23:56:38.901Z,99.90
2022-07-25T23:59:06.335Z,99.90
